KGEY/GEY METAR and TAF weather

Enter ICAO airport designator
Station Type Date Time Source
KGEY METAR 2020/01/27 13:53 UTC NOAA

KGEY 271353Z AUTO 18004KT 10SM OVC038 01/M04 A2991 RMK AO2 SLP150 T00061044


Station Type Date Time Source
KGEY Decoded METAR 2020/01/27 13:53 UTC NOAA

SOUTH BIG HORN COUNTY AIRPORT , WY, United States (KGEY) 44-31N 108-05W 1191M
Jan 27, 2020 - 08:53 AM EST / 2020.01.27 1353 UTC
Wind: from the S (180 degrees) at 5 MPH (4 KT):0
Visibility: 10 mile(s):0
Sky conditions: overcast
Temperature: 33.1 F (0.6 C)
Windchill: 28 F (-2 C):1
Dew Point: 24.1 F (-4.4 C)
Relative Humidity: 69%
Pressure (altimeter): 29.91 in. Hg (1012 hPa)
ob: KGEY 271353Z AUTO 18004KT 10SM OVC038 01/M04 A2991 RMK AO2 SLP150 T00061044
cycle: 14

Station Type Date Time Source
KGEY TAF UTC NOAA

Error!

Example: see airport list